Time;durP1;ratioP1;P1;durP2;ratioP2;P2;SDS_P1;SDS_P2;PMS_P1;PMS_P2;Temp;Humidity;BMP_temperature;BMP_pressure;BME280_temperature;BME280_humidity;BME280_pressure;Samples;Min_cycle;Max_cycle;Signal;HPM_P1;HPM_P2
2022/05/24 00:00:40;;;;;;;;;;;;;;;9.33;100.00;99399.19;5053714;28;877;-61
2022/05/24 00:03:06;;;;;;;;;;;;;;;9.33;100.00;99393.66;5053807;28;827;-62
2022/05/24 00:05:34;;;;;;;;;;;;;;;9.30;100.00;99391.72;5053935;28;810;-61
2022/05/24 00:08:00;;;;;;;;;;;;;;;9.37;100.00;99381.41;5053637;28;885;-61
2022/05/24 00:10:30;;;;;;;;;;;;;;;9.34;100.00;99384.19;5053566;28;949;-62
2022/05/24 00:12:58;;;;;;;;;;;;;;;9.24;100.00;99376.78;5053422;28;1918;-62
2022/05/24 00:15:29;;;;;;;;;;;;;;;9.12;100.00;99386.31;5053465;28;857;-62
2022/05/24 00:18:00;;;;;;;;;;;;;;;8.97;100.00;99388.34;5053464;28;775;-62
2022/05/24 00:20:29;;;;;;;;;;;;;;;8.97;100.00;99383.63;5053382;28;881;-62
2022/05/24 00:22:55;;;;;;;;;;;;;;;9.16;100.00;99382.34;5053664;28;807;-61
2022/05/24 00:25:22;;;;;;;;;;;;;;;9.44;100.00;99380.59;5053357;28;819;-61
2022/05/24 00:27:49;;;;;;;;;;;;;;;9.59;100.00;99379.28;5053277;28;1191;-61
2022/05/24 00:30:16;;;;;;;;;;;;;;;9.72;100.00;99387.06;5053362;28;838;-61
2022/05/24 00:32:44;;;;;;;;;;;;;;;9.87;100.00;99371.97;5053160;28;1977;-60
2022/05/24 00:35:10;;;;;;;;;;;;;;;10.12;100.00;99376.47;5053143;28;854;-60
2022/05/24 00:37:38;;;;;;;;;;;;;;;10.36;100.00;99374.66;5053098;28;795;-60
2022/05/24 00:40:06;;;;;;;;;;;;;;;10.53;100.00;99361.84;5053038;28;838;-60
2022/05/24 00:42:34;;;;;;;;;;;;;;;10.58;100.00;99359.44;5035052;28;874;-60
2022/05/24 00:45:07;;;;;;;;;;;;;;;10.62;100.00;99356.59;5053468;28;807;-61
2022/05/24 00:47:38;;;;;;;;;;;;;;;10.67;100.00;99350.63;5052968;28;877;-61
2022/05/24 00:50:07;;;;;;;;;;;;;;;10.68;100.00;99343.91;5052984;28;921;-60
2022/05/24 00:52:56;;;;;;;;;;;;;;;10.62;100.00;99349.13;5052044;28;1886;-61
2022/05/24 00:55:24;;;;;;;;;;;;;;;10.61;100.00;99347.53;5052715;28;1060;-61
2022/05/24 00:58:05;;;;;;;;;;;;;;;10.52;100.00;99360.28;5052699;28;887;-63
2022/05/24 01:00:31;;;;;;;;;;;;;;;10.19;100.00;99355.06;5052645;28;889;-62
2022/05/24 01:02:58;;;;;;;;;;;;;;;9.92;100.00;99354.97;5052660;28;853;-61
2022/05/24 01:05:26;;;;;;;;;;;;;;;9.73;100.00;99348.03;5052785;28;889;-61
2022/05/24 01:07:53;;;;;;;;;;;;;;;9.69;100.00;99346.50;5052607;28;886;-63
2022/05/24 01:10:36;;;;;;;;;;;;;;;9.73;100.00;99352.75;5052523;28;822;-61
2022/05/24 01:13:06;;;;;;;;;;;;;;;9.74;100.00;99357.09;5052766;28;1882;-61
2022/05/24 01:15:32;;;;;;;;;;;;;;;9.74;100.00;99357.09;5052294;28;875;-61
2022/05/24 01:17:59;;;;;;;;;;;;;;;9.78;100.00;99363.38;5052285;28;803;-63
2022/05/24 01:20:26;;;;;;;;;;;;;;;9.88;100.00;99370.78;5052299;28;798;-62
2022/05/24 01:22:59;;;;;;;;;;;;;;;9.99;100.00;99367.91;5052211;28;818;-63
2022/05/24 01:25:45;;;;;;;;;;;;;;;10.05;100.00;99380.09;5052223;28;861;-62
2022/05/24 01:28:19;;;;;;;;;;;;;;;10.06;100.00;99375.34;5051768;28;1237;-61
2022/05/24 01:30:46;;;;;;;;;;;;;;;10.06;100.00;99367.84;5052192;28;952;-61
2022/05/24 01:36:15;;;;;;;;;;;;;;;10.09;100.00;99369.00;5052021;28;684;-61
2022/05/24 01:38:46;;;;;;;;;;;;;;;10.08;100.00;99364.69;5052062;28;841;-61
2022/05/24 01:41:24;;;;;;;;;;;;;;;10.05;100.00;99365.47;5051929;28;983;-61
2022/05/24 01:43:53;;;;;;;;;;;;;;;9.94;100.00;99362.81;5052212;28;913;-61
2022/05/24 01:46:23;;;;;;;;;;;;;;;9.81;100.00;99366.13;5051872;28;791;-62
2022/05/24 01:48:53;;;;;;;;;;;;;;;9.75;100.00;99362.22;5051841;28;810;-62
2022/05/24 01:51:22;;;;;;;;;;;;;;;9.74;100.00;99366.16;5051794;28;885;-61
2022/05/24 01:53:50;;;;;;;;;;;;;;;9.76;100.00;99368.50;5051606;28;1878;-61
2022/05/24 01:56:18;;;;;;;;;;;;;;;9.79;100.00;99360.22;5052015;28;822;-61
2022/05/24 01:58:48;;;;;;;;;;;;;;;9.84;100.00;99366.50;5051645;28;881;-61
2022/05/24 02:01:37;;;;;;;;;;;;;;;9.85;100.00;99366.06;5051665;28;886;-61
2022/05/24 02:04:05;;;;;;;;;;;;;;;9.88;100.00;99364.47;5051444;28;839;-61
2022/05/24 02:06:32;;;;;;;;;;;;;;;9.86;100.00;99366.84;5051589;28;862;-61
2022/05/24 02:08:58;;;;;;;;;;;;;;;9.76;100.00;99366.53;5051503;28;798;-61
2022/05/24 02:11:29;;;;;;;;;;;;;;;9.68;100.00;99372.53;5051414;28;885;-61
2022/05/24 02:14:01;;;;;;;;;;;;;;;9.60;100.00;99369.81;5051703;28;1885;-61
2022/05/24 02:16:30;;;;;;;;;;;;;;;9.51;100.00;99365.94;5051417;28;913;-61
2022/05/24 02:18:57;;;;;;;;;;;;;;;9.44;100.00;99371.53;5051554;28;881;-61
2022/05/24 02:21:24;;;;;;;;;;;;;;;9.36;100.00;99373.53;5051416;28;814;-62
2022/05/24 02:23:51;;;;;;;;;;;;;;;9.29;100.00;99377.13;5051355;28;850;-61
2022/05/24 02:26:20;;;;;;;;;;;;;;;9.25;100.00;99384.66;5051498;28;932;-62
2022/05/24 02:28:50;;;;;;;;;;;;;;;9.18;100.00;99382.72;5051218;28;1233;-62
2022/05/24 02:31:18;;;;;;;;;;;;;;;9.17;100.00;99381.16;5051258;28;822;-63
2022/05/24 02:33:45;;;;;;;;;;;;;;;9.17;100.00;99386.69;5051242;28;1906;-63
2022/05/24 02:36:12;;;;;;;;;;;;;;;9.19;100.00;99383.50;5051229;28;855;-61
2022/05/24 02:38:39;;;;;;;;;;;;;;;9.18;100.00;99382.72;5051555;28;811;-61
2022/05/24 02:43:51;;;;;;;;;;;;;;;9.18;100.00;99385.47;5051292;28;711;-61
2022/05/24 02:46:18;;;;;;;;;;;;;;;9.10;100.00;99391.44;5051179;28;866;-61
2022/05/24 02:48:45;;;;;;;;;;;;;;;9.02;100.00;99396.19;5051139;28;826;-61
2022/05/24 02:51:13;;;;;;;;;;;;;;;8.91;100.00;99392.72;5051149;28;826;-61
2022/05/24 02:53:41;;;;;;;;;;;;;;;8.89;100.00;99395.09;5051082;28;1886;-61
2022/05/24 02:56:08;;;;;;;;;;;;;;;8.85;100.00;99395.09;5051122;28;849;-61
2022/05/24 02:58:36;;;;;;;;;;;;;;;8.88;100.00;99391.56;5051048;28;861;-60
2022/05/24 03:01:04;;;;;;;;;;;;;;;8.92;100.00;99403.34;5051105;28;835;-61
2022/05/24 03:03:31;;;;;;;;;;;;;;;8.93;100.00;99407.66;5050923;28;893;-61
2022/05/24 03:05:58;;;;;;;;;;;;;;;8.93;100.00;99415.94;5050976;28;846;-61
2022/05/24 03:11:10;;;;;;;;;;;;;;;8.95;100.00;99418.28;5050933;28;672;-61
2022/05/24 03:16:22;;;;;;;;;;;;;;;9.04;100.00;99415.88;5054731;28;637;-61
2022/05/24 03:18:49;;;;;;;;;;;;;;;9.03;100.00;99410.78;5054827;28;857;-60
2022/05/24 03:21:15;;;;;;;;;;;;;;;9.01;100.00;99413.16;5054631;28;862;-60
2022/05/24 03:23:43;;;;;;;;;;;;;;;8.99;100.00;99419.84;5054631;28;814;-62
2022/05/24 03:26:11;;;;;;;;;;;;;;;8.98;100.00;99425.75;5054491;28;963;-61
2022/05/24 03:28:38;;;;;;;;;;;;;;;8.98;100.00;99434.00;5054323;28;1409;-61
2022/05/24 03:31:05;;;;;;;;;;;;;;;8.98;100.00;99425.75;5054376;28;858;-61
2022/05/24 03:33:32;;;;;;;;;;;;;;;9.03;100.00;99425.34;5054336;28;1979;-61
2022/05/24 03:35:59;;;;;;;;;;;;;;;9.12;100.00;99428.44;5054301;28;880;-61
2022/05/24 03:38:24;;;;;;;;;;;;;;;9.16;100.00;99431.97;5054627;28;893;-61
2022/05/24 03:40:51;;;;;;;;;;;;;;;9.18;100.00;99432.34;5054164;28;810;-61
2022/05/24 03:43:18;;;;;;;;;;;;;;;9.20;100.00;99441.00;5054130;28;869;-61
2022/05/24 03:45:46;;;;;;;;;;;;;;;9.26;100.00;99446.09;5054162;28;881;-61
2022/05/24 03:48:13;;;;;;;;;;;;;;;9.42;100.00;99453.91;5054106;28;894;-61
2022/05/24 03:53:44;;;;;;;;;;;;;;;9.66;100.00;99452.94;5054003;28;1926;-61
2022/05/24 03:56:11;;;;;;;;;;;;;;;9.85;100.00;99453.63;5053920;28;846;-61
2022/05/24 03:58:37;;;;;;;;;;;;;;;9.98;100.00;99454.69;5053900;28;906;-61
2022/05/24 04:01:04;;;;;;;;;;;;;;;10.01;100.00;99457.44;5053815;28;852;-60
2022/05/24 04:03:31;;;;;;;;;;;;;;;10.08;100.00;99453.03;5054007;28;794;-60
2022/05/24 04:05:58;;;;;;;;;;;;;;;10.20;100.00;99458.84;5054019;28;861;-61
2022/05/24 04:08:26;;;;;;;;;;;;;;;10.35;100.00;99456.75;5053757;28;874;-61
2022/05/24 04:11:09;;;;;;;;;;;;;;;10.51;100.00;99452.66;5053785;28;966;-61
2022/05/24 04:13:37;;;;;;;;;;;;;;;10.67;100.00;99457.63;5053515;28;1943;-61
2022/05/24 04:16:04;;;;;;;;;;;;;;;10.89;100.00;99447.91;5054179;28;817;-60
2022/05/24 04:18:32;;;;;;;;;;;;;;;11.11;100.00;99450.41;5053637;28;818;-61
2022/05/24 04:20:58;;;;;;;;;;;;;;;11.18;100.00;99453.06;5054593;28;846;-60
2022/05/24 04:23:25;;;;;;;;;;;;;;;11.16;100.00;99453.50;5053513;28;870;-60
2022/05/24 04:25:53;;;;;;;;;;;;;;;11.26;100.00;99445.47;5054013;28;1022;-61
2022/05/24 04:28:21;;;;;;;;;;;;;;;11.45;100.00;99450.34;5053352;28;1295;-61
2022/05/24 04:30:49;;;;;;;;;;;;;;;11.73;100.00;99456.66;5053495;28;885;-61
2022/05/24 04:33:16;;;;;;;;;;;;;;;11.82;100.00;99459.66;5053192;28;1971;-61
2022/05/24 04:35:43;;;;;;;;;;;;;;;11.84;100.00;99460.84;5053079;28;875;-61
2022/05/24 04:38:10;;;;;;;;;;;;;;;11.92;100.00;99457.97;5053109;28;819;-61
2022/05/24 04:43:23;;;;;;;;;;;;;;;12.70;100.00;99478.00;5053576;28;652;-60
2022/05/24 04:45:53;;;;;;;;;;;;;;;13.31;100.00;99489.91;5053144;28;862;-61
2022/05/24 04:48:20;;;;;;;;;;;;;;;13.58;100.00;99486.97;5052996;28;844;-61
2022/05/24 04:50:51;;;;;;;;;;;;;;;13.55;100.00;99485.84;5052764;28;799;-61
2022/05/24 04:53:17;;;;;;;;;;;;;;;13.34;100.00;99489.06;5052778;28;1949;-62
2022/05/24 04:55:44;;;;;;;;;;;;;;;13.03;100.00;99492.03;5052794;28;831;-61
2022/05/24 04:58:11;;;;;;;;;;;;;;;12.80;100.00;99487.31;5052862;28;845;-61
2022/05/24 05:00:38;;;;;;;;;;;;;;;12.95;100.00;99493.38;5052660;28;846;-61
2022/05/24 05:03:09;;;;;;;;;;;;;;;13.25;100.00;99498.72;5034764;28;1311;-62
2022/05/24 05:05:35;;;;;;;;;;;;;;;13.73;100.00;99495.75;5052551;28;834;-61
2022/05/24 05:08:04;;;;;;;;;;;;;;;14.19;100.00;99499.41;5052627;28;814;-61
2022/05/24 05:10:34;;;;;;;;;;;;;;;14.70;100.00;99494.19;5052557;28;803;-61
2022/05/24 05:13:04;;;;;;;;;;;;;;;15.18;100.00;99498.03;5052361;28;1939;-60
2022/05/24 05:15:34;;;;;;;;;;;;;;;15.49;100.00;99497.53;5052371;28;941;-60
2022/05/24 05:18:14;;;;;;;;;;;;;;;15.88;100.00;99496.38;5052434;28;858;-62
2022/05/24 05:20:41;;;;;;;;;;;;;;;16.19;100.00;99503.34;5052227;28;890;-61
2022/05/24 05:23:10;;;;;;;;;;;;;;;16.42;100.00;99491.81;5033989;28;1697;-61
2022/05/24 05:25:37;;;;;;;;;;;;;;;16.41;100.00;99481.09;5052252;28;878;-61
2022/05/24 05:28:04;;;;;;;;;;;;;;;16.60;100.00;99485.66;5047999;28;1205;-63
2022/05/24 05:33:16;;;;;;;;;;;;;;;16.90;100.00;99475.06;5032179;28;1965;-60
2022/05/24 05:35:46;;;;;;;;;;;;;;;17.46;100.00;99481.78;5032402;28;819;-61
2022/05/24 05:38:14;;;;;;;;;;;;;;;18.32;100.00;99484.75;5031546;28;826;-60
2022/05/24 05:40:40;;;;;;;;;;;;;;;19.29;99.16;99488.19;5032047;28;866;-61
2022/05/24 05:43:06;;;;;;;;;;;;;;;20.41;95.48;99490.06;5032141;28;944;-61
2022/05/24 05:45:33;;;;;;;;;;;;;;;21.73;89.98;99487.97;5031867;28;918;-61
2022/05/24 05:48:00;;;;;;;;;;;;;;;23.05;83.45;99489.22;5031821;28;858;-62
2022/05/24 05:50:27;;;;;;;;;;;;;;;23.89;76.68;99489.97;5031814;28;848;-63
2022/05/24 05:52:53;;;;;;;;;;;;;;;24.55;75.42;99493.69;5031829;28;1965;-61
2022/05/24 05:55:20;;;;;;;;;;;;;;;25.02;73.99;99488.44;5031763;28;893;-64
2022/05/24 05:57:48;;;;;;;;;;;;;;;25.32;73.91;99490.84;5031737;28;871;-63
2022/05/24 06:00:14;;;;;;;;;;;;;;;25.69;71.30;99501.19;5031732;28;865;-60
2022/05/24 06:02:41;;;;;;;;;;;;;;;25.67;69.38;99493.19;5031731;28;851;-60
2022/05/24 06:05:10;;;;;;;;;;;;;;;24.30;74.73;99494.56;5031626;28;867;-60
2022/05/24 06:07:37;;;;;;;;;;;;;;;23.24;81.63;99498.91;5031469;28;961;-60
2022/05/24 06:10:06;;;;;;;;;;;;;;;24.33;76.40;99496.41;5031629;28;843;-60
2022/05/24 06:12:33;;;;;;;;;;;;;;;25.27;70.85;99494.47;5031427;28;1939;-62
2022/05/24 06:15:01;;;;;;;;;;;;;;;25.52;69.07;99497.53;5031577;28;796;-61
2022/05/24 06:17:27;;;;;;;;;;;;;;;25.81;68.15;99499.09;5031497;28;866;-60
2022/05/24 06:19:57;;;;;;;;;;;;;;;26.23;65.97;99500.09;5031475;28;907;-62
2022/05/24 06:22:24;;;;;;;;;;;;;;;26.42;67.01;99495.41;5031398;28;804;-60
2022/05/24 06:24:51;;;;;;;;;;;;;;;26.93;69.16;99497.25;5031689;28;819;-60
2022/05/24 06:27:22;;;;;;;;;;;;;;;27.16;64.34;99492.22;5013768;28;1012;-59
2022/05/24 06:29:48;;;;;;;;;;;;;;;27.07;65.80;99490.47;5049556;28;1304;-62
2022/05/24 06:32:15;;;;;;;;;;;;;;;27.45;65.44;99493.59;5051314;28;1906;-62
2022/05/24 06:34:42;;;;;;;;;;;;;;;27.79;64.62;99482.72;5033444;28;910;-60
2022/05/24 06:37:09;;;;;;;;;;;;;;;28.39;64.17;99489.63;5051132;28;851;-59
2022/05/24 06:39:36;;;;;;;;;;;;;;;28.82;62.97;99480.31;5051383;28;883;-59
2022/05/24 06:42:02;;;;;;;;;;;;;;;29.07;61.94;99483.84;5051434;28;869;-59
2022/05/24 06:44:28;;;;;;;;;;;;;;;29.15;64.17;99481.97;5051684;28;890;-59
2022/05/24 06:46:55;;;;;;;;;;;;;;;29.46;60.37;99483.25;5051077;28;863;-59
2022/05/24 06:49:21;;;;;;;;;;;;;;;29.15;59.38;99478.31;5052748;28;756;-59
2022/05/24 06:51:48;;;;;;;;;;;;;;;28.73;57.25;99481.47;5054976;28;1887;-59
2022/05/24 06:54:15;;;;;;;;;;;;;;;28.62;57.34;99488.06;5037176;28;1181;-59
2022/05/24 06:56:42;;;;;;;;;;;;;;;28.95;59.92;99488.16;5054916;28;910;-59
2022/05/24 07:04:39;;;;;;;;;;;;;;;29.11;59.40;99498.56;5055148;28;672;-60
2022/05/24 07:07:06;;;;;;;;;;;;;;;29.17;56.34;99492.78;5054712;28;873;-61
2022/05/24 07:09:33;;;;;;;;;;;;;;;29.43;59.04;99486.44;5054763;28;878;-60
2022/05/24 07:12:01;;;;;;;;;;;;;;;30.08;56.50;99493.59;5054649;28;1944;-60
2022/05/24 07:14:29;;;;;;;;;;;;;;;30.07;54.05;99488.47;5054682;28;818;-60
2022/05/24 07:16:55;;;;;;;;;;;;;;;30.09;52.65;99488.69;5054670;28;822;-59
2022/05/24 07:19:23;;;;;;;;;;;;;;;30.00;56.15;99489.09;5054591;28;857;-59
2022/05/24 07:21:50;;;;;;;;;;;;;;;29.90;54.68;99489.53;5054773;28;882;-60
2022/05/24 07:24:16;;;;;;;;;;;;;;;29.93;55.87;99491.28;5054785;28;845;-60
2022/05/24 07:26:43;;;;;;;;;;;;;;;30.16;52.58;99485.19;5054516;28;952;-60
2022/05/24 07:29:10;;;;;;;;;;;;;;;29.77;53.10;99489.53;5054129;28;1411;-60
2022/05/24 07:31:40;;;;;;;;;;;;;;;30.11;57.35;99483.22;5054345;28;893;-59
2022/05/24 07:34:07;;;;;;;;;;;;;;;30.61;51.82;99492.88;5054167;28;1910;-59
2022/05/24 07:36:33;;;;;;;;;;;;;;;30.68;52.58;99497.91;5054109;28;878;-59
2022/05/24 07:39:00;;;;;;;;;;;;;;;31.05;51.20;99501.03;5054547;28;806;-61
2022/05/24 07:46:56;;;;;;;;;;;;;;;30.66;54.58;99496.91;5054139;28;621;-59
2022/05/24 07:49:23;;;;;;;;;;;;;;;31.00;51.16;99491.25;5036118;28;1276;-60
2022/05/24 07:51:49;;;;;;;;;;;;;;;30.66;51.83;99500.56;5053960;28;1889;-60
2022/05/24 07:54:16;;;;;;;;;;;;;;;30.16;49.23;99488.03;5053983;28;799;-59
2022/05/24 07:56:43;;;;;;;;;;;;;;;29.71;51.38;99497.41;5053942;28;818;-59
2022/05/24 07:59:09;;;;;;;;;;;;;;;29.92;51.85;99494.69;5053799;28;861;-59
2022/05/24 08:01:36;;;;;;;;;;;;;;;29.98;52.06;99494.59;5053458;28;850;-59
2022/05/24 08:04:03;;;;;;;;;;;;;;;30.41;50.81;99491.47;5053727;28;866;-58
2022/05/24 08:06:30;;;;;;;;;;;;;;;30.50;51.80;99495.97;5053611;28;851;-59
2022/05/24 08:08:57;;;;;;;;;;;;;;;30.60;47.43;99490.56;5053668;28;818;-59
2022/05/24 08:11:23;;;;;;;;;;;;;;;30.55;48.82;99495.06;5053615;28;850;-58
2022/05/24 08:13:50;;;;;;;;;;;;;;;30.67;47.70;99487.06;5053673;28;1947;-58
2022/05/24 08:16:17;;;;;;;;;;;;;;;30.62;49.63;99490.78;5053667;28;885;-59
2022/05/24 08:18:44;;;;;;;;;;;;;;;30.61;50.38;99486.41;5053515;28;831;-59
2022/05/24 08:21:11;;;;;;;;;;;;;;;30.73;50.22;99488.47;5053432;28;877;-59
2022/05/24 08:23:37;;;;;;;;;;;;;;;30.37;48.35;99490.28;5053364;28;941;-58
2022/05/24 08:26:03;;;;;;;;;;;;;;;30.02;50.77;99484.41;5053491;28;894;-59
2022/05/24 08:28:29;;;;;;;;;;;;;;;30.20;50.34;99476.31;5053059;28;1236;-60
2022/05/24 08:30:57;;;;;;;;;;;;;;;30.50;50.99;99476.00;5053292;28;850;-59
2022/05/24 08:33:24;;;;;;;;;;;;;;;30.71;49.76;99470.38;5053200;28;1906;-59
2022/05/24 08:35:51;;;;;;;;;;;;;;;30.75;46.59;99470.81;5035575;28;913;-58
2022/05/24 08:38:18;;;;;;;;;;;;;;;30.74;51.32;99464.31;5053254;28;823;-59
2022/05/24 08:40:46;;;;;;;;;;;;;;;30.90;49.96;99464.53;5053000;28;891;-59
2022/05/24 08:43:36;;;;;;;;;;;;;;;31.06;46.48;99460.50;5053033;28;803;-58
2022/05/24 08:48:59;;;;;;;;;;;;;;;30.16;49.55;99473.03;5053271;28;629;-59
2022/05/24 08:51:30;;;;;;;;;;;;;;;29.85;45.00;99452.59;5052923;28;850;-58
2022/05/24 08:54:20;;;;;;;;;;;;;;;29.50;46.64;99458.09;5052766;28;1866;-58
2022/05/24 08:56:58;;;;;;;;;;;;;;;29.81;49.82;99463.56;5033564;28;1246;-59
2022/05/24 08:59:31;;;;;;;;;;;;;;;29.83;49.89;99467.41;5052738;28;850;-59
2022/05/24 09:01:59;;;;;;;;;;;;;;;29.70;48.40;99458.81;5052641;28;858;-59
2022/05/24 09:04:27;;;;;;;;;;;;;;;29.64;47.85;99466.69;5052498;28;811;-59
2022/05/24 09:07:05;;;;;;;;;;;;;;;29.49;49.35;99450.88;5052800;28;806;-59
2022/05/24 09:09:50;;;;;;;;;;;;;;;29.37;46.92;99455.22;5052582;28;799;-59
2022/05/24 09:12:37;;;;;;;;;;;;;;;28.71;46.97;99455.66;5051643;28;1878;-59
2022/05/24 09:18:17;;;;;;;;;;;;;;;27.86;45.82;99461.53;5052418;28;613;-58
2022/05/24 09:20:44;;;;;;;;;;;;;;;27.28;44.80;99459.66;5052348;28;842;-58
2022/05/24 09:23:20;;;;;;;;;;;;;;;27.16;47.13;99449.66;5052214;28;885;-58
2022/05/24 09:25:53;;;;;;;;;;;;;;;27.26;50.58;99451.69;5052222;28;909;-58
2022/05/24 09:28:40;;;;;;;;;;;;;;;27.45;46.61;99457.47;5051745;28;1409;-59
2022/05/24 09:31:07;;;;;;;;;;;;;;;27.29;48.91;99450.66;5052043;28;1105;-58
2022/05/24 09:33:39;;;;;;;;;;;;;;;27.04;45.43;99449.75;5051935;28;1910;-58
2022/05/24 09:36:06;;;;;;;;;;;;;;;26.95;46.42;99452.13;5052011;28;883;-58
2022/05/24 09:38:37;;;;;;;;;;;;;;;26.60;45.96;99445.88;5052049;28;858;-58
2022/05/24 09:41:15;;;;;;;;;;;;;;;26.47;46.03;99445.66;5051890;28;1036;-58
2022/05/24 09:43:41;;;;;;;;;;;;;;;26.11;43.74;99451.19;5052143;28;787;-58
2022/05/24 09:46:19;;;;;;;;;;;;;;;25.95;47.15;99454.84;5051988;28;902;-57
2022/05/24 09:49:03;;;;;;;;;;;;;;;25.72;45.35;99460.50;5051904;28;850;-57
2022/05/24 09:51:41;;;;;;;;;;;;;;;25.75;44.78;99444.53;5051713;28;883;-59
2022/05/24 09:54:20;;;;;;;;;;;;;;;25.75;44.15;99450.22;5051682;28;1910;-58
2022/05/24 09:57:03;;;;;;;;;;;;;;;25.82;44.55;99450.47;5051586;28;871;-58
2022/05/24 10:28:14;;;;;;;;;;;;;;;26.49;43.16;99443.84;5593595;22;1660;-57
2022/05/24 10:40:10;;;;;;;;;;;;;;;26.10;46.52;99452.50;5051607;28;612;-58
2022/05/24 10:42:39;;;;;;;;;;;;;;;25.45;44.60;99457.19;5016222;28;1046;-57
2022/05/24 10:45:08;;;;;;;;;;;;;;;26.00;47.00;99462.56;5051108;28;930;-57
2022/05/24 10:47:41;;;;;;;;;;;;;;;27.54;45.07;99458.44;5051788;28;830;-57
2022/05/24 10:50:09;;;;;;;;;;;;;;;28.14;42.79;99469.75;5051220;28;830;-58
2022/05/24 10:52:50;;;;;;;;;;;;;;;28.56;41.50;99461.78;5051089;28;1894;-57
2022/05/24 10:58:26;;;;;;;;;;;;;;;27.88;42.01;99458.91;5009524;28;838;-57
2022/05/24 11:01:03;;;;;;;;;;;;;;;27.56;41.71;99459.44;5009801;28;1114;-57
2022/05/24 11:03:33;;;;;;;;;;;;;;;27.45;42.88;99454.63;5009332;28;802;-58
2022/05/24 11:06:21;;;;;;;;;;;;;;;27.51;45.48;99453.84;5009239;28;904;-57
2022/05/24 11:08:51;;;;;;;;;;;;;;;27.68;40.84;99458.03;5009144;28;1898;-59
2022/05/24 11:11:30;;;;;;;;;;;;;;;27.37;42.53;99456.50;5009267;28;900;-58
2022/05/24 11:13:57;;;;;;;;;;;;;;;27.58;42.16;99447.56;5009161;28;1882;-58
2022/05/24 11:16:33;;;;;;;;;;;;;;;27.82;40.70;99447.56;5009188;28;846;-59
2022/05/24 11:19:00;;;;;;;;;;;;;;;28.12;41.12;99441.09;5009193;28;918;-58
2022/05/24 11:21:33;;;;;;;;;;;;;;;28.21;39.84;99437.91;5009149;28;901;-57
2022/05/24 11:24:06;;;;;;;;;;;;;;;28.35;40.68;99427.41;5009285;28;798;-57
2022/05/24 11:26:35;;;;;;;;;;;;;;;28.28;39.88;99428.78;5009028;28;901;-58
2022/05/24 11:29:15;;;;;;;;;;;;;;;28.30;40.75;99423.31;5008971;28;1281;-57
2022/05/24 11:31:45;;;;;;;;;;;;;;;28.14;39.79;99423.53;5009221;28;953;-57
2022/05/24 11:34:18;;;;;;;;;;;;;;;28.10;41.01;99412.47;4984723;28;1962;-59
2022/05/24 11:37:13;;;;;;;;;;;;;;;27.78;40.88;99409.44;5011904;28;944;-58
2022/05/24 11:39:42;;;;;;;;;;;;;;;27.50;40.05;99401.97;4991678;28;1480;-58
2022/05/24 11:42:29;;;;;;;;;;;;;;;27.48;41.15;99402.50;5012733;28;834;-58
2022/05/24 11:44:59;;;;;;;;;;;;;;;27.83;41.27;99409.38;5012414;28;847;-58
2022/05/24 11:47:35;;;;;;;;;;;;;;;28.04;39.47;99417.47;4996182;28;923;-58
2022/05/24 11:50:05;;;;;;;;;;;;;;;27.84;40.15;99419.41;5012348;28;854;-59
2022/05/24 11:52:51;;;;;;;;;;;;;;;26.96;41.18;99416.81;5012149;28;1894;-58
2022/05/24 11:55:53;;;;;;;;;;;;;;;26.23;42.00;99403.78;5012238;28;898;-58
2022/05/24 11:58:19;;;;;;;;;;;;;;;26.08;43.43;99401.28;4966297;28;1094;-58
2022/05/24 12:01:00;;;;;;;;;;;;;;;25.88;43.89;99391.00;5019920;28;1017;-58
2022/05/24 12:09:17;;;;;;;;;;;;;;;25.26;44.09;99383.41;5032299;28;637;-59
2022/05/24 12:11:44;;;;;;;;;;;;;;;25.21;44.02;99400.34;5031739;28;902;-58
2022/05/24 12:14:29;;;;;;;;;;;;;;;25.74;43.51;99390.00;5031479;28;1945;-59
2022/05/24 12:16:56;;;;;;;;;;;;;;;25.93;42.97;99395.16;5031614;28;839;-58
2022/05/24 12:19:38;;;;;;;;;;;;;;;25.82;42.37;99390.25;5031587;28;1272;-57
2022/05/24 12:22:09;;;;;;;;;;;;;;;25.27;43.07;99387.00;5031818;28;885;-58
2022/05/24 12:24:37;;;;;;;;;;;;;;;24.68;43.46;99391.53;5031546;28;786;-58
2022/05/24 12:33:21;;;;;;;;;;;;;;;26.71;41.95;99407.44;5011496;28;1918;-57
2022/05/24 12:35:51;;;;;;;;;;;;;;;26.19;41.62;99403.28;5011580;28;869;-59
2022/05/24 12:38:21;;;;;;;;;;;;;;;25.51;43.10;99416.81;5011494;28;845;-57
2022/05/24 12:40:49;;;;;;;;;;;;;;;25.43;42.96;99417.31;5011295;28;870;-58
2022/05/24 12:43:18;;;;;;;;;;;;;;;25.13;44.07;99433.22;5011315;28;863;-57
2022/05/24 12:45:45;;;;;;;;;;;;;;;24.86;44.02;99441.91;5011279;28;861;-58
2022/05/24 12:48:19;;;;;;;;;;;;;;;25.13;44.26;99450.94;4993831;28;811;-57
2022/05/24 12:50:46;;;;;;;;;;;;;;;25.82;42.99;99461.78;5011304;28;787;-57
2022/05/24 12:53:20;;;;;;;;;;;;;;;25.59;43.30;99463.09;5011291;28;1913;-57
2022/05/24 12:55:57;;;;;;;;;;;;;;;24.90;43.92;99472.78;5011019;28;798;-57
2022/05/24 12:58:45;;;;;;;;;;;;;;;24.29;45.24;99478.94;5017099;28;885;-57
2022/05/24 13:01:17;;;;;;;;;;;;;;;23.81;46.47;99475.56;5052832;28;2155;-58
2022/05/24 13:03:46;;;;;;;;;;;;;;;23.24;47.74;99493.25;5053247;28;791;-58
2022/05/24 13:06:23;;;;;;;;;;;;;;;22.59;49.00;99485.84;5052759;28;795;-59
2022/05/24 13:09:10;;;;;;;;;;;;;;;22.11;50.36;99483.41;5052592;28;834;-58
2022/05/24 13:11:36;;;;;;;;;;;;;;;21.91;51.10;99486.97;5041911;28;1219;-58
2022/05/24 13:14:04;;;;;;;;;;;;;;;21.77;51.49;99480.09;5052464;28;1886;-57
2022/05/24 13:16:32;;;;;;;;;;;;;;;21.68;51.66;99485.03;5052460;28;771;-58
2022/05/24 13:19:01;;;;;;;;;;;;;;;21.40;52.68;99485.31;5052425;28;799;-57
2022/05/24 13:21:31;;;;;;;;;;;;;;;21.25;53.50;99490.19;5052367;28;961;-58
2022/05/24 13:24:10;;;;;;;;;;;;;;;21.05;52.80;99485.22;5052189;28;895;-58
2022/05/24 13:26:57;;;;;;;;;;;;;;;20.82;52.84;99479.19;5052159;28;1081;-57
2022/05/24 13:29:24;;;;;;;;;;;;;;;20.57;53.89;99480.47;5052173;28;933;-57
2022/05/24 13:34:36;;;;;;;;;;;;;;;20.22;55.08;99483.03;5052421;28;692;-58
2022/05/24 13:40:05;;;;;;;;;;;;;;;20.14;55.85;99486.19;5052070;28;672;-57
2022/05/24 13:42:32;;;;;;;;;;;;;;;20.17;55.86;99474.00;5033965;28;1285;-57
2022/05/24 13:48:31;;;;;;;;;;;;;;;20.03;54.92;99344.91;5052036;28;660;-58
2022/05/24 13:51:04;;;;;;;;;;;;;;;19.79;54.64;99349.25;5051896;28;806;-58
2022/05/24 13:53:38;;;;;;;;;;;;;;;19.89;54.88;99366.81;5051542;28;1890;-59
2022/05/24 13:56:07;;;;;;;;;;;;;;;20.15;54.10;99388.75;5051911;28;902;-58
2022/05/24 13:58:36;;;;;;;;;;;;;;;20.63;53.57;99418.81;5051388;28;795;-57
2022/05/24 14:01:21;;;;;;;;;;;;;;;21.22;52.37;99421.66;5051635;28;905;-57
2022/05/24 14:03:54;;;;;;;;;;;;;;;21.78;51.48;99433.81;5051580;28;847;-57
2022/05/24 14:06:21;;;;;;;;;;;;;;;21.98;50.19;99412.63;5051627;28;890;-58
2022/05/24 14:20:58;;;;;;;;;;;;;;;21.62;47.40;99414.66;5051842;28;724;-58
2022/05/24 14:23:25;;;;;;;;;;;;;;;21.81;46.82;99415.22;5051278;28;934;-58
2022/05/24 14:25:52;;;;;;;;;;;;;;;21.79;46.90;99412.88;5051322;28;1098;-57
2022/05/24 14:28:19;;;;;;;;;;;;;;;21.50;47.06;99410.13;5033476;28;1339;-57
2022/05/24 14:30:48;;;;;;;;;;;;;;;21.75;47.18;99411.53;5051356;28;866;-57
2022/05/24 14:33:17;;;;;;;;;;;;;;;22.36;46.83;99417.25;5031219;28;1975;-57
2022/05/24 14:35:44;;;;;;;;;;;;;;;22.18;46.05;99432.31;5031418;28;819;-57
2022/05/24 14:38:10;;;;;;;;;;;;;;;21.72;46.17;99443.44;5031280;28;878;-57
2022/05/24 14:40:40;;;;;;;;;;;;;;;21.29;47.24;99442.97;5031368;28;791;-57
2022/05/24 14:43:10;;;;;;;;;;;;;;;21.18;48.04;99449.19;5032074;28;814;-57
2022/05/24 14:45:36;;;;;;;;;;;;;;;21.62;48.18;99442.78;5031401;28;885;-57
2022/05/24 14:48:03;;;;;;;;;;;;;;;21.93;47.31;99427.38;5031525;28;831;-56
2022/05/24 14:50:30;;;;;;;;;;;;;;;22.09;47.74;99424.03;5031467;28;795;-58
2022/05/24 14:52:57;;;;;;;;;;;;;;;22.50;47.56;99428.91;5031170;28;1890;-58
2022/05/24 14:58:35;;;;;;;;;;;;;;;22.68;47.50;99445.53;5031303;28;621;-58
2022/05/24 15:01:02;;;;;;;;;;;;;;;22.74;47.32;99449.16;5031238;28;866;-57
2022/05/24 15:03:28;;;;;;;;;;;;;;;22.93;47.39;99448.84;5031439;28;803;-57
2022/05/24 15:05:55;;;;;;;;;;;;;;;22.91;46.37;99451.38;5031142;28;869;-58
2022/05/24 15:16:36;;;;;;;;;;;;;;;21.51;49.32;99468.69;5034810;28;635;-57
2022/05/24 15:19:03;;;;;;;;;;;;;;;21.26;49.80;99469.25;5035024;28;823;-58